sensor_id;sensor_type;location;lat;lon;timestamp;temperature;humidity
21759;DHT22;11041;50.854;20.580;2023-04-24T00:01:00;9.90;99.90
21759;DHT22;11041;50.854;20.580;2023-04-24T00:03:27;9.90;99.90
21759;DHT22;11041;50.854;20.580;2023-04-24T00:05:54;9.90;99.90
21759;DHT22;11041;50.854;20.580;2023-04-24T00:08:20;9.80;99.90
21759;DHT22;11041;50.854;20.580;2023-04-24T00:10:48;9.90;99.90
21759;DHT22;11041;50.854;20.580;2023-04-24T00:13:15;9.80;99.90
21759;DHT22;11041;50.854;20.580;2023-04-24T00:15:41;9.80;99.90
21759;DHT22;11041;50.854;20.580;2023-04-24T00:18:07;9.80;99.90
21759;DHT22;11041;50.854;20.580;2023-04-24T00:20:34;9.80;99.90
21759;DHT22;11041;50.854;20.580;2023-04-24T00:23:03;9.80;99.90
21759;DHT22;11041;50.854;20.580;2023-04-24T00:25:30;9.80;99.90
21759;DHT22;11041;50.854;20.580;2023-04-24T00:27:57;9.70;99.90
21759;DHT22;11041;50.854;20.580;2023-04-24T00:30:23;9.70;99.90
21759;DHT22;11041;50.854;20.580;2023-04-24T00:32:50;9.70;99.90
21759;DHT22;11041;50.854;20.580;2023-04-24T00:35:16;9.40;99.90
21759;DHT22;11041;50.854;20.580;2023-04-24T00:37:43;9.50;99.90
21759;DHT22;11041;50.854;20.580;2023-04-24T00:40:10;9.50;99.90
21759;DHT22;11041;50.854;20.580;2023-04-24T00:42:36;9.50;99.90
21759;DHT22;11041;50.854;20.580;2023-04-24T00:45:04;9.50;99.90
21759;DHT22;11041;50.854;20.580;2023-04-24T00:47:32;9.60;99.90
21759;DHT22;11041;50.854;20.580;2023-04-24T00:50:07;9.40;99.90
21759;DHT22;11041;50.854;20.580;2023-04-24T00:52:33;9.50;99.90
21759;DHT22;11041;50.854;20.580;2023-04-24T00:55:00;9.50;99.90
21759;DHT22;11041;50.854;20.580;2023-04-24T00:57:27;9.50;99.90
21759;DHT22;11041;50.854;20.580;2023-04-24T00:59:54;9.50;99.90
21759;DHT22;11041;50.854;20.580;2023-04-24T01:02:22;9.40;99.90
21759;DHT22;11041;50.854;20.580;2023-04-24T01:04:52;9.40;99.90
21759;DHT22;11041;50.854;20.580;2023-04-24T01:07:22;9.40;99.90
21759;DHT22;11041;50.854;20.580;2023-04-24T01:09:49;9.40;99.90
21759;DHT22;11041;50.854;20.580;2023-04-24T01:12:18;9.30;99.90
21759;DHT22;11041;50.854;20.580;2023-04-24T01:14:46;9.20;99.90
21759;DHT22;11041;50.854;20.580;2023-04-24T01:17:12;9.20;99.90
21759;DHT22;11041;50.854;20.580;2023-04-24T01:19:39;9.20;99.90
21759;DHT22;11041;50.854;20.580;2023-04-24T01:22:13;9.10;99.90
21759;DHT22;11041;50.854;20.580;2023-04-24T01:24:41;9.20;99.90
21759;DHT22;11041;50.854;20.580;2023-04-24T01:27:10;9.00;99.90
21759;DHT22;11041;50.854;20.580;2023-04-24T01:29:38;9.00;99.90
21759;DHT22;11041;50.854;20.580;2023-04-24T01:32:05;8.90;99.90
21759;DHT22;11041;50.854;20.580;2023-04-24T01:34:33;8.90;99.90
21759;DHT22;11041;50.854;20.580;2023-04-24T01:37:00;8.80;99.90
21759;DHT22;11041;50.854;20.580;2023-04-24T01:39:27;8.80;99.90
21759;DHT22;11041;50.854;20.580;2023-04-24T01:41:55;8.50;99.90
21759;DHT22;11041;50.854;20.580;2023-04-24T01:44:22;8.60;99.90
21759;DHT22;11041;50.854;20.580;2023-04-24T01:46:49;8.50;99.90
21759;DHT22;11041;50.854;20.580;2023-04-24T01:49:16;8.60;99.90
21759;DHT22;11041;50.854;20.580;2023-04-24T01:51:43;8.60;99.90
21759;DHT22;11041;50.854;20.580;2023-04-24T01:54:10;8.60;99.90
21759;DHT22;11041;50.854;20.580;2023-04-24T01:56:40;8.50;99.90
21759;DHT22;11041;50.854;20.580;2023-04-24T01:59:11;8.60;99.90
21759;DHT22;11041;50.854;20.580;2023-04-24T02:01:39;8.60;99.90
21759;DHT22;11041;50.854;20.580;2023-04-24T02:04:06;8.60;99.90
21759;DHT22;11041;50.854;20.580;2023-04-24T02:06:35;8.50;99.90
21759;DHT22;11041;50.854;20.580;2023-04-24T02:09:02;8.50;99.90
21759;DHT22;11041;50.854;20.580;2023-04-24T02:11:29;8.50;99.90
21759;DHT22;11041;50.854;20.580;2023-04-24T02:13:56;8.60;99.90
21759;DHT22;11041;50.854;20.580;2023-04-24T02:16:22;8.60;99.90
21759;DHT22;11041;50.854;20.580;2023-04-24T02:18:49;8.20;99.90
21759;DHT22;11041;50.854;20.580;2023-04-24T02:21:15;8.50;99.90
21759;DHT22;11041;50.854;20.580;2023-04-24T02:23:42;8.40;99.90
21759;DHT22;11041;50.854;20.580;2023-04-24T02:26:08;8.40;99.90
21759;DHT22;11041;50.854;20.580;2023-04-24T02:28:35;8.50;99.90
21759;DHT22;11041;50.854;20.580;2023-04-24T02:31:02;8.40;99.90
21759;DHT22;11041;50.854;20.580;2023-04-24T02:33:28;8.30;99.90
21759;DHT22;11041;50.854;20.580;2023-04-24T02:35:55;8.30;99.90
21759;DHT22;11041;50.854;20.580;2023-04-24T02:38:21;8.40;99.90
21759;DHT22;11041;50.854;20.580;2023-04-24T02:40:48;8.40;99.90
21759;DHT22;11041;50.854;20.580;2023-04-24T02:43:14;8.30;99.90
21759;DHT22;11041;50.854;20.580;2023-04-24T02:45:41;8.30;99.90
21759;DHT22;11041;50.854;20.580;2023-04-24T02:48:07;8.30;99.90
21759;DHT22;11041;50.854;20.580;2023-04-24T02:50:34;8.30;99.90
21759;DHT22;11041;50.854;20.580;2023-04-24T02:53:00;8.30;99.90
21759;DHT22;11041;50.854;20.580;2023-04-24T02:55:27;8.20;99.90
21759;DHT22;11041;50.854;20.580;2023-04-24T02:57:53;8.30;99.90
21759;DHT22;11041;50.854;20.580;2023-04-24T03:00:20;8.30;99.90
21759;DHT22;11041;50.854;20.580;2023-04-24T03:02:46;8.30;99.90
21759;DHT22;11041;50.854;20.580;2023-04-24T03:05:15;8.40;99.90
21759;DHT22;11041;50.854;20.580;2023-04-24T03:07:42;8.30;99.90
21759;DHT22;11041;50.854;20.580;2023-04-24T03:10:09;8.30;99.90
21759;DHT22;11041;50.854;20.580;2023-04-24T03:12:35;8.30;99.90
21759;DHT22;11041;50.854;20.580;2023-04-24T03:15:02;8.20;99.90
21759;DHT22;11041;50.854;20.580;2023-04-24T03:17:29;8.20;99.90
21759;DHT22;11041;50.854;20.580;2023-04-24T03:19:55;8.20;99.90
21759;DHT22;11041;50.854;20.580;2023-04-24T03:22:22;8.20;99.90
21759;DHT22;11041;50.854;20.580;2023-04-24T03:24:48;8.10;99.90
21759;DHT22;11041;50.854;20.580;2023-04-24T03:27:15;8.10;99.90
21759;DHT22;11041;50.854;20.580;2023-04-24T03:29:41;8.10;99.90
21759;DHT22;11041;50.854;20.580;2023-04-24T03:32:08;8.00;99.90
21759;DHT22;11041;50.854;20.580;2023-04-24T03:34:34;8.10;99.90
21759;DHT22;11041;50.854;20.580;2023-04-24T03:37:01;8.10;99.90
21759;DHT22;11041;50.854;20.580;2023-04-24T03:39:27;8.10;99.90
21759;DHT22;11041;50.854;20.580;2023-04-24T03:41:54;8.10;99.90
21759;DHT22;11041;50.854;20.580;2023-04-24T03:44:21;8.10;99.90
21759;DHT22;11041;50.854;20.580;2023-04-24T03:46:47;8.10;99.90
21759;DHT22;11041;50.854;20.580;2023-04-24T03:49:14;8.10;99.90
21759;DHT22;11041;50.854;20.580;2023-04-24T03:51:40;8.00;99.90
21759;DHT22;11041;50.854;20.580;2023-04-24T03:54:07;8.00;99.90
21759;DHT22;11041;50.854;20.580;2023-04-24T03:56:33;8.10;99.90
21759;DHT22;11041;50.854;20.580;2023-04-24T03:58:59;8.10;99.90
21759;DHT22;11041;50.854;20.580;2023-04-24T04:01:26;8.10;99.90
21759;DHT22;11041;50.854;20.580;2023-04-24T04:03:54;8.20;99.90
21759;DHT22;11041;50.854;20.580;2023-04-24T04:06:20;8.20;99.90
21759;DHT22;11041;50.854;20.580;2023-04-24T04:08:48;8.20;99.90
21759;DHT22;11041;50.854;20.580;2023-04-24T04:11:14;8.20;99.90
21759;DHT22;11041;50.854;20.580;2023-04-24T04:13:41;8.30;99.90
21759;DHT22;11041;50.854;20.580;2023-04-24T04:16:08;8.30;99.90
21759;DHT22;11041;50.854;20.580;2023-04-24T04:18:35;8.40;99.90
21759;DHT22;11041;50.854;20.580;2023-04-24T04:21:02;8.40;99.90
21759;DHT22;11041;50.854;20.580;2023-04-24T04:23:28;8.40;99.90
21759;DHT22;11041;50.854;20.580;2023-04-24T04:25:55;8.50;99.90
21759;DHT22;11041;50.854;20.580;2023-04-24T04:28:22;8.50;99.90
21759;DHT22;11041;50.854;20.580;2023-04-24T04:30:50;8.60;99.90
21759;DHT22;11041;50.854;20.580;2023-04-24T04:33:20;8.60;99.90
21759;DHT22;11041;50.854;20.580;2023-04-24T04:35:47;8.70;99.90
21759;DHT22;11041;50.854;20.580;2023-04-24T04:38:19;8.80;99.90
21759;DHT22;11041;50.854;20.580;2023-04-24T04:40:46;8.90;99.90
21759;DHT22;11041;50.854;20.580;2023-04-24T04:43:13;8.90;99.90
21759;DHT22;11041;50.854;20.580;2023-04-24T04:45:41;9.00;99.90
21759;DHT22;11041;50.854;20.580;2023-04-24T04:48:09;9.10;99.90
21759;DHT22;11041;50.854;20.580;2023-04-24T04:50:38;9.20;99.90
21759;DHT22;11041;50.854;20.580;2023-04-24T04:53:05;9.30;99.90
21759;DHT22;11041;50.854;20.580;2023-04-24T04:55:32;9.40;99.90
21759;DHT22;11041;50.854;20.580;2023-04-24T04:57:59;9.50;99.90
21759;DHT22;11041;50.854;20.580;2023-04-24T05:00:26;9.60;99.90
21759;DHT22;11041;50.854;20.580;2023-04-24T05:02:54;9.70;99.90
21759;DHT22;11041;50.854;20.580;2023-04-24T05:05:21;9.80;99.90
21759;DHT22;11041;50.854;20.580;2023-04-24T05:07:48;10.00;99.90
21759;DHT22;11041;50.854;20.580;2023-04-24T05:10:14;10.00;99.90
21759;DHT22;11041;50.854;20.580;2023-04-24T05:12:41;10.20;99.90
21759;DHT22;11041;50.854;20.580;2023-04-24T05:15:07;10.30;99.90
21759;DHT22;11041;50.854;20.580;2023-04-24T05:17:34;10.40;99.90
21759;DHT22;11041;50.854;20.580;2023-04-24T05:20:02;10.50;99.90
21759;DHT22;11041;50.854;20.580;2023-04-24T05:22:31;10.60;99.90
21759;DHT22;11041;50.854;20.580;2023-04-24T05:24:58;10.70;99.90
21759;DHT22;11041;50.854;20.580;2023-04-24T05:27:25;10.80;99.90
21759;DHT22;11041;50.854;20.580;2023-04-24T05:29:51;10.90;99.90
21759;DHT22;11041;50.854;20.580;2023-04-24T05:32:18;11.00;99.90
21759;DHT22;11041;50.854;20.580;2023-04-24T05:34:44;11.10;99.90
21759;DHT22;11041;50.854;20.580;2023-04-24T05:37:11;11.20;99.90
21759;DHT22;11041;50.854;20.580;2023-04-24T05:39:37;11.30;99.90
21759;DHT22;11041;50.854;20.580;2023-04-24T05:42:04;11.40;99.90
21759;DHT22;11041;50.854;20.580;2023-04-24T05:44:30;11.50;99.90
21759;DHT22;11041;50.854;20.580;2023-04-24T05:46:57;11.60;99.90
21759;DHT22;11041;50.854;20.580;2023-04-24T05:49:23;11.60;99.90
21759;DHT22;11041;50.854;20.580;2023-04-24T05:51:50;11.80;99.90
21759;DHT22;11041;50.854;20.580;2023-04-24T05:54:16;11.80;99.90
21759;DHT22;11041;50.854;20.580;2023-04-24T05:56:43;11.90;99.90
21759;DHT22;11041;50.854;20.580;2023-04-24T05:59:10;12.00;99.90
21759;DHT22;11041;50.854;20.580;2023-04-24T06:01:37;12.10;99.90
21759;DHT22;11041;50.854;20.580;2023-04-24T06:04:04;12.30;99.90
21759;DHT22;11041;50.854;20.580;2023-04-24T06:06:30;12.40;99.90
21759;DHT22;11041;50.854;20.580;2023-04-24T06:08:58;12.60;99.90
21759;DHT22;11041;50.854;20.580;2023-04-24T06:11:25;12.70;99.90
21759;DHT22;11041;50.854;20.580;2023-04-24T06:13:51;12.80;99.90
21759;DHT22;11041;50.854;20.580;2023-04-24T06:16:18;12.90;99.90
21759;DHT22;11041;50.854;20.580;2023-04-24T06:18:44;13.00;99.90
21759;DHT22;11041;50.854;20.580;2023-04-24T06:21:13;13.10;99.90
21759;DHT22;11041;50.854;20.580;2023-04-24T06:23:39;13.30;99.90
21759;DHT22;11041;50.854;20.580;2023-04-24T06:26:06;13.30;99.90
21759;DHT22;11041;50.854;20.580;2023-04-24T06:28:32;13.50;99.90
21759;DHT22;11041;50.854;20.580;2023-04-24T06:30:59;13.70;99.90
21759;DHT22;11041;50.854;20.580;2023-04-24T06:33:25;13.80;99.90
21759;DHT22;11041;50.854;20.580;2023-04-24T06:35:52;13.90;99.90
21759;DHT22;11041;50.854;20.580;2023-04-24T06:38:18;14.00;99.90
21759;DHT22;11041;50.854;20.580;2023-04-24T06:40:45;14.20;99.90
21759;DHT22;11041;50.854;20.580;2023-04-24T06:43:12;14.30;99.90
21759;DHT22;11041;50.854;20.580;2023-04-24T06:45:39;14.40;99.90
21759;DHT22;11041;50.854;20.580;2023-04-24T06:48:05;14.50;99.90
21759;DHT22;11041;50.854;20.580;2023-04-24T06:50:32;14.60;99.90
21759;DHT22;11041;50.854;20.580;2023-04-24T06:52:58;14.70;99.90
21759;DHT22;11041;50.854;20.580;2023-04-24T06:55:25;14.80;99.90
21759;DHT22;11041;50.854;20.580;2023-04-24T06:57:51;14.90;99.90
21759;DHT22;11041;50.854;20.580;2023-04-24T07:00:18;15.00;99.90
21759;DHT22;11041;50.854;20.580;2023-04-24T07:02:45;15.10;99.90
21759;DHT22;11041;50.854;20.580;2023-04-24T07:05:12;15.20;99.90
21759;DHT22;11041;50.854;20.580;2023-04-24T07:07:38;15.30;99.90
21759;DHT22;11041;50.854;20.580;2023-04-24T07:10:06;15.40;99.90
21759;DHT22;11041;50.854;20.580;2023-04-24T07:12:34;15.50;99.90
21759;DHT22;11041;50.854;20.580;2023-04-24T07:15:01;15.60;99.90
21759;DHT22;11041;50.854;20.580;2023-04-24T07:17:29;15.70;99.90
21759;DHT22;11041;50.854;20.580;2023-04-24T07:19:55;15.70;99.90
21759;DHT22;11041;50.854;20.580;2023-04-24T07:22:22;15.80;99.90
21759;DHT22;11041;50.854;20.580;2023-04-24T07:24:49;15.90;99.90
21759;DHT22;11041;50.854;20.580;2023-04-24T07:27:15;16.00;99.90
21759;DHT22;11041;50.854;20.580;2023-04-24T07:29:42;16.00;99.90
21759;DHT22;11041;50.854;20.580;2023-04-24T07:32:08;16.10;99.90
21759;DHT22;11041;50.854;20.580;2023-04-24T07:34:35;16.20;99.90
21759;DHT22;11041;50.854;20.580;2023-04-24T07:37:02;16.20;99.90
21759;DHT22;11041;50.854;20.580;2023-04-24T07:39:29;16.30;99.90
21759;DHT22;11041;50.854;20.580;2023-04-24T07:41:56;16.30;99.90
21759;DHT22;11041;50.854;20.580;2023-04-24T07:44:23;16.50;99.90
21759;DHT22;11041;50.854;20.580;2023-04-24T07:46:49;16.50;99.90
21759;DHT22;11041;50.854;20.580;2023-04-24T07:49:15;16.60;99.90
21759;DHT22;11041;50.854;20.580;2023-04-24T07:51:42;16.70;99.90
21759;DHT22;11041;50.854;20.580;2023-04-24T07:54:09;16.80;99.90
21759;DHT22;11041;50.854;20.580;2023-04-24T07:56:35;16.80;99.90
21759;DHT22;11041;50.854;20.580;2023-04-24T07:59:05;16.90;99.90
21759;DHT22;11041;50.854;20.580;2023-04-24T08:01:31;17.00;99.90
21759;DHT22;11041;50.854;20.580;2023-04-24T08:03:58;17.10;99.90
21759;DHT22;11041;50.854;20.580;2023-04-24T08:06:25;17.20;99.90
21759;DHT22;11041;50.854;20.580;2023-04-24T08:08:56;17.40;99.90
21759;DHT22;11041;50.854;20.580;2023-04-24T08:11:22;17.50;99.90
21759;DHT22;11041;50.854;20.580;2023-04-24T08:13:50;17.60;99.90
21759;DHT22;11041;50.854;20.580;2023-04-24T08:16:16;18.20;99.40
21759;DHT22;11041;50.854;20.580;2023-04-24T08:18:43;18.10;99.90
21759;DHT22;11041;50.854;20.580;2023-04-24T08:21:09;18.10;99.90
21759;DHT22;11041;50.854;20.580;2023-04-24T08:23:37;18.20;99.50
21759;DHT22;11041;50.854;20.580;2023-04-24T08:26:03;18.20;97.90
21759;DHT22;11041;50.854;20.580;2023-04-24T08:28:31;18.20;99.90
21759;DHT22;11041;50.854;20.580;2023-04-24T08:30:57;18.20;99.90
21759;DHT22;11041;50.854;20.580;2023-04-24T08:33:24;18.40;98.40
21759;DHT22;11041;50.854;20.580;2023-04-24T08:35:51;18.40;97.90
21759;DHT22;11041;50.854;20.580;2023-04-24T08:38:18;18.50;96.80
21759;DHT22;11041;50.854;20.580;2023-04-24T08:40:45;18.70;95.50
21759;DHT22;11041;50.854;20.580;2023-04-24T08:43:15;18.80;90.20
21759;DHT22;11041;50.854;20.580;2023-04-24T08:45:42;18.80;82.00
21759;DHT22;11041;50.854;20.580;2023-04-24T08:48:10;19.00;79.40
21759;DHT22;11041;50.854;20.580;2023-04-24T08:50:37;19.00;77.80
21759;DHT22;11041;50.854;20.580;2023-04-24T08:53:07;19.00;81.10
21759;DHT22;11041;50.854;20.580;2023-04-24T08:55:34;19.00;81.00
21759;DHT22;11041;50.854;20.580;2023-04-24T08:58:02;19.00;80.20
21759;DHT22;11041;50.854;20.580;2023-04-24T09:00:30;19.00;80.60
21759;DHT22;11041;50.854;20.580;2023-04-24T09:03:00;19.00;81.60
21759;DHT22;11041;50.854;20.580;2023-04-24T09:05:27;19.40;72.30
21759;DHT22;11041;50.854;20.580;2023-04-24T09:07:56;19.50;71.20
21759;DHT22;11041;50.854;20.580;2023-04-24T09:10:24;19.50;73.30
21759;DHT22;11041;50.854;20.580;2023-04-24T09:12:52;19.40;75.00
21759;DHT22;11041;50.854;20.580;2023-04-24T09:15:21;19.40;75.70
21759;DHT22;11041;50.854;20.580;2023-04-24T09:17:47;19.40;74.40
21759;DHT22;11041;50.854;20.580;2023-04-24T09:20:14;19.70;67.90
21759;DHT22;11041;50.854;20.580;2023-04-24T09:22:42;19.80;70.90
21759;DHT22;11041;50.854;20.580;2023-04-24T09:25:11;19.80;71.50
21759;DHT22;11041;50.854;20.580;2023-04-24T09:27:43;19.70;73.40
21759;DHT22;11041;50.854;20.580;2023-04-24T09:30:11;19.70;75.40
21759;DHT22;11041;50.854;20.580;2023-04-24T09:32:39;19.60;74.80
21759;DHT22;11041;50.854;20.580;2023-04-24T09:35:14;19.70;75.10
21759;DHT22;11041;50.854;20.580;2023-04-24T09:37:46;19.80;74.50
21759;DHT22;11041;50.854;20.580;2023-04-24T09:40:19;19.80;73.50
21759;DHT22;11041;50.854;20.580;2023-04-24T09:42:55;19.80;75.20
21759;DHT22;11041;50.854;20.580;2023-04-24T09:45:35;19.80;74.00
21759;DHT22;11041;50.854;20.580;2023-04-24T09:48:03;19.80;74.60
21759;DHT22;11041;50.854;20.580;2023-04-24T09:50:31;20.00;74.40
21759;DHT22;11041;50.854;20.580;2023-04-24T09:53:05;20.00;77.10
21759;DHT22;11041;50.854;20.580;2023-04-24T09:55:42;19.90;75.60
21759;DHT22;11041;50.854;20.580;2023-04-24T09:58:16;19.80;75.60
21759;DHT22;11041;50.854;20.580;2023-04-24T10:00:42;19.80;76.90
21759;DHT22;11041;50.854;20.580;2023-04-24T10:03:12;19.90;76.90
21759;DHT22;11041;50.854;20.580;2023-04-24T10:05:38;19.90;74.20
21759;DHT22;11041;50.854;20.580;2023-04-24T10:08:11;20.20;74.00
21759;DHT22;11041;50.854;20.580;2023-04-24T10:10:42;20.30;75.80
21759;DHT22;11041;50.854;20.580;2023-04-24T10:13:13;20.20;78.20
21759;DHT22;11041;50.854;20.580;2023-04-24T10:15:43;20.20;78.60
21759;DHT22;11041;50.854;20.580;2023-04-24T10:18:11;20.10;79.00
21759;DHT22;11041;50.854;20.580;2023-04-24T10:20:39;20.10;79.70
21759;DHT22;11041;50.854;20.580;2023-04-24T10:23:07;20.20;77.70
21759;DHT22;11041;50.854;20.580;2023-04-24T10:25:35;20.40;75.40
21759;DHT22;11041;50.854;20.580;2023-04-24T10:28:03;20.50;74.00
21759;DHT22;11041;50.854;20.580;2023-04-24T10:30:32;20.50;70.40
21759;DHT22;11041;50.854;20.580;2023-04-24T10:33:05;20.50;74.00
21759;DHT22;11041;50.854;20.580;2023-04-24T10:35:42;20.60;74.00
21759;DHT22;11041;50.854;20.580;2023-04-24T10:38:21;20.60;71.50
21759;DHT22;11041;50.854;20.580;2023-04-24T10:40:50;20.70;72.70
21759;DHT22;11041;50.854;20.580;2023-04-24T10:43:19;20.60;72.30
21759;DHT22;11041;50.854;20.580;2023-04-24T10:46:05;20.70;76.30
21759;DHT22;11041;50.854;20.580;2023-04-24T10:48:32;20.90;73.40
21759;DHT22;11041;50.854;20.580;2023-04-24T10:50:59;20.80;74.50
21759;DHT22;11041;50.854;20.580;2023-04-24T10:53:29;21.00;72.90
21759;DHT22;11041;50.854;20.580;2023-04-24T10:58:38;21.10;71.40
21759;DHT22;11041;50.854;20.580;2023-04-24T11:01:07;21.30;71.10
21759;DHT22;11041;50.854;20.580;2023-04-24T11:03:35;21.40;72.90
21759;DHT22;11041;50.854;20.580;2023-04-24T11:06:08;21.50;72.90
21759;DHT22;11041;50.854;20.580;2023-04-24T11:08:43;21.30;71.60
21759;DHT22;11041;50.854;20.580;2023-04-24T11:11:13;21.50;73.80
21759;DHT22;11041;50.854;20.580;2023-04-24T11:16:28;21.50;68.60
21759;DHT22;11041;50.854;20.580;2023-04-24T11:21:48;21.60;70.00
21759;DHT22;11041;50.854;20.580;2023-04-24T11:29:49;21.80;70.50
21759;DHT22;11041;50.854;20.580;2023-04-24T11:32:53;22.00;71.20
21759;DHT22;11041;50.854;20.580;2023-04-24T11:35:44;22.00;72.00
21759;DHT22;11041;50.854;20.580;2023-04-24T11:38:35;21.70;71.90
21759;DHT22;11041;50.854;20.580;2023-04-24T11:41:27;21.60;71.90
21759;DHT22;11041;50.854;20.580;2023-04-24T11:44:20;21.50;72.10
21759;DHT22;11041;50.854;20.580;2023-04-24T11:47:16;21.30;74.80
21759;DHT22;11041;50.854;20.580;2023-04-24T11:50:09;21.40;71.00
21759;DHT22;11041;50.854;20.580;2023-04-24T11:53:04;21.40;71.30
21759;DHT22;11041;50.854;20.580;2023-04-24T11:55:55;21.40;68.20
21759;DHT22;11041;50.854;20.580;2023-04-24T11:58:47;21.20;71.90
21759;DHT22;11041;50.854;20.580;2023-04-24T12:01:45;21.20;70.40
21759;DHT22;11041;50.854;20.580;2023-04-24T12:16:58;20.80;66.40
21759;DHT22;11041;50.854;20.580;2023-04-24T12:19:24;21.80;67.50
21759;DHT22;11041;50.854;20.580;2023-04-24T12:22:05;21.70;68.30
21759;DHT22;11041;50.854;20.580;2023-04-24T12:24:32;21.70;67.80
21759;DHT22;11041;50.854;20.580;2023-04-24T12:26:58;21.60;65.30
21759;DHT22;11041;50.854;20.580;2023-04-24T12:29:27;21.80;66.60
21759;DHT22;11041;50.854;20.580;2023-04-24T12:31:54;22.10;65.50
21759;DHT22;11041;50.854;20.580;2023-04-24T12:34:22;22.40;64.80
21759;DHT22;11041;50.854;20.580;2023-04-24T12:36:51;22.90;61.20
21759;DHT22;11041;50.854;20.580;2023-04-24T12:39:19;23.00;58.80
21759;DHT22;11041;50.854;20.580;2023-04-24T12:41:58;23.20;59.50
21759;DHT22;11041;50.854;20.580;2023-04-24T12:44:36;23.40;59.30
21759;DHT22;11041;50.854;20.580;2023-04-24T12:47:03;23.30;60.70
21759;DHT22;11041;50.854;20.580;2023-04-24T12:49:30;23.40;61.10
21759;DHT22;11041;50.854;20.580;2023-04-24T12:51:57;23.40;60.70
21759;DHT22;11041;50.854;20.580;2023-04-24T12:54:24;23.20;62.10
21759;DHT22;11041;50.854;20.580;2023-04-24T12:56:51;22.80;61.10
21759;DHT22;11041;50.854;20.580;2023-04-24T12:59:17;23.00;60.00
21759;DHT22;11041;50.854;20.580;2023-04-24T13:01:44;23.00;60.00
21759;DHT22;11041;50.854;20.580;2023-04-24T13:04:10;23.00;59.60
21759;DHT22;11041;50.854;20.580;2023-04-24T13:06:37;23.30;59.20
21759;DHT22;11041;50.854;20.580;2023-04-24T13:09:04;23.50;62.50
21759;DHT22;11041;50.854;20.580;2023-04-24T13:11:30;23.70;61.30
21759;DHT22;11041;50.854;20.580;2023-04-24T13:13:57;23.70;61.90
21759;DHT22;11041;50.854;20.580;2023-04-24T13:16:24;23.90;62.90
21759;DHT22;11041;50.854;20.580;2023-04-24T13:18:50;24.20;61.80
21759;DHT22;11041;50.854;20.580;2023-04-24T13:21:17;24.30;63.30
21759;DHT22;11041;50.854;20.580;2023-04-24T13:23:43;24.60;61.00
21759;DHT22;11041;50.854;20.580;2023-04-24T13:26:10;24.00;64.30
21759;DHT22;11041;50.854;20.580;2023-04-24T13:28:36;24.10;63.30
21759;DHT22;11041;50.854;20.580;2023-04-24T13:31:04;24.40;64.50
21759;DHT22;11041;50.854;20.580;2023-04-24T13:33:32;24.40;62.90
21759;DHT22;11041;50.854;20.580;2023-04-24T13:35:59;24.70;64.20
21759;DHT22;11041;50.854;20.580;2023-04-24T13:38:25;24.80;61.10
21759;DHT22;11041;50.854;20.580;2023-04-24T13:40:52;24.80;60.10
21759;DHT22;11041;50.854;20.580;2023-04-24T13:43:18;24.80;60.90
21759;DHT22;11041;50.854;20.580;2023-04-24T13:45:45;24.80;60.40
21759;DHT22;11041;50.854;20.580;2023-04-24T13:48:11;24.70;59.20
21759;DHT22;11041;50.854;20.580;2023-04-24T13:50:42;24.90;60.90
21759;DHT22;11041;50.854;20.580;2023-04-24T13:53:08;25.00;61.60
21759;DHT22;11041;50.854;20.580;2023-04-24T13:55:36;23.70;59.60
21759;DHT22;11041;50.854;20.580;2023-04-24T13:58:02;23.90;61.80
21759;DHT22;11041;50.854;20.580;2023-04-24T14:00:29;24.30;61.10
21759;DHT22;11041;50.854;20.580;2023-04-24T14:02:55;24.30;59.50
21759;DHT22;11041;50.854;20.580;2023-04-24T14:05:22;24.40;59.60
21759;DHT22;11041;50.854;20.580;2023-04-24T14:07:50;24.30;60.70
21759;DHT22;11041;50.854;20.580;2023-04-24T14:10:17;24.10;60.20
21759;DHT22;11041;50.854;20.580;2023-04-24T14:12:44;23.50;60.30
21759;DHT22;11041;50.854;20.580;2023-04-24T14:15:11;23.90;61.00
21759;DHT22;11041;50.854;20.580;2023-04-24T14:17:39;23.90;62.60
21759;DHT22;11041;50.854;20.580;2023-04-24T14:20:07;23.50;61.90
21759;DHT22;11041;50.854;20.580;2023-04-24T14:22:34;23.60;62.90
21759;DHT22;11041;50.854;20.580;2023-04-24T14:25:01;23.20;63.20
21759;DHT22;11041;50.854;20.580;2023-04-24T14:27:28;22.90;63.10
21759;DHT22;11041;50.854;20.580;2023-04-24T14:29:54;22.70;64.70
21759;DHT22;11041;50.854;20.580;2023-04-24T14:32:21;22.70;63.80
21759;DHT22;11041;50.854;20.580;2023-04-24T14:34:48;22.50;65.80
21759;DHT22;11041;50.854;20.580;2023-04-24T14:37:14;22.20;66.00
21759;DHT22;11041;50.854;20.580;2023-04-24T14:39:41;22.20;65.30
21759;DHT22;11041;50.854;20.580;2023-04-24T14:42:08;22.00;66.50
21759;DHT22;11041;50.854;20.580;2023-04-24T14:44:34;21.80;67.60
21759;DHT22;11041;50.854;20.580;2023-04-24T14:47:01;21.70;68.10
21759;DHT22;11041;50.854;20.580;2023-04-24T14:49:27;21.50;70.00
21759;DHT22;11041;50.854;20.580;2023-04-24T14:51:54;21.40;69.20
21759;DHT22;11041;50.854;20.580;2023-04-24T14:54:20;21.30;69.90
21759;DHT22;11041;50.854;20.580;2023-04-24T14:56:49;21.20;70.20
21759;DHT22;11041;50.854;20.580;2023-04-24T14:59:16;21.20;71.20
21759;DHT22;11041;50.854;20.580;2023-04-24T15:01:42;21.10;71.30
21759;DHT22;11041;50.854;20.580;2023-04-24T15:04:09;21.00;72.80
21759;DHT22;11041;50.854;20.580;2023-04-24T15:06:36;21.00;73.70
21759;DHT22;11041;50.854;20.580;2023-04-24T15:09:02;21.00;73.30
21759;DHT22;11041;50.854;20.580;2023-04-24T15:11:29;21.00;73.80
21759;DHT22;11041;50.854;20.580;2023-04-24T15:13:56;20.80;73.50
21759;DHT22;11041;50.854;20.580;2023-04-24T15:16:24;20.80;73.50
21759;DHT22;11041;50.854;20.580;2023-04-24T15:18:50;20.90;72.00
21759;DHT22;11041;50.854;20.580;2023-04-24T15:21:17;20.90;73.10
21759;DHT22;11041;50.854;20.580;2023-04-24T15:23:43;21.00;73.40
21759;DHT22;11041;50.854;20.580;2023-04-24T15:26:10;20.80;74.50
21759;DHT22;11041;50.854;20.580;2023-04-24T15:28:37;20.80;74.60
21759;DHT22;11041;50.854;20.580;2023-04-24T15:31:03;20.70;73.40
21759;DHT22;11041;50.854;20.580;2023-04-24T15:33:30;20.70;73.70
21759;DHT22;11041;50.854;20.580;2023-04-24T15:35:56;20.60;72.90
21759;DHT22;11041;50.854;20.580;2023-04-24T15:38:23;20.50;74.10
21759;DHT22;11041;50.854;20.580;2023-04-24T15:40:49;20.40;75.30
21759;DHT22;11041;50.854;20.580;2023-04-24T15:43:16;20.30;76.10
21759;DHT22;11041;50.854;20.580;2023-04-24T15:45:43;20.10;77.50
21759;DHT22;11041;50.854;20.580;2023-04-24T15:48:10;20.10;77.90
21759;DHT22;11041;50.854;20.580;2023-04-24T15:50:36;20.00;78.40
21759;DHT22;11041;50.854;20.580;2023-04-24T15:53:03;19.80;79.30